Time;durP1;ratioP1;P1;durP2;ratioP2;P2;SDS_P1;SDS_P2;PMS_P1;PMS_P2;Temp;Humidity;BMP_temperature;BMP_pressure;BME280_temperature;BME280_humidity;BME280_pressure;Samples;Min_cycle;Max_cycle;Signal;HPM_P1;HPM_P2
2023/03/29 00:00:34;;;;;;;6.05;2.72;;;;;;;-148.88;92.74;76870.16;5035594;28;20025;-83
2023/03/29 00:03:06;;;;;;;4.80;3.00;;;;;;;-148.88;93.50;76870.16;5034483;28;20110;-84
2023/03/29 00:05:37;;;;;;;7.45;2.60;;;;;;;-148.88;95.59;76876.25;5036307;28;20021;-84
2023/03/29 00:08:06;;;;;;;6.97;2.30;;;;;;;-148.88;96.14;76888.47;5035707;28;20045;-84
2023/03/29 00:10:32;;;;;;;4.72;2.63;;;;;;;-148.88;97.34;76890.50;5035460;28;20037;-83
2023/03/29 00:12:58;;;;;;;4.95;2.67;;;;;;;-148.88;97.71;76894.56;5036021;28;20060;-84
2023/03/29 00:15:23;;;;;;;5.63;2.58;;;;;;;-148.88;99.31;76918.94;5034610;28;20017;-84
2023/03/29 00:17:51;;;;;;;6.88;3.00;;;;;;;-148.88;99.94;76914.88;5032641;28;20184;-83
2023/03/29 00:20:19;;;;;;;5.32;2.88;;;;;;;-148.88;100.00;76914.88;5032313;28;20108;-83
2023/03/29 00:22:45;;;;;;;4.95;2.45;;;;;;;-148.88;100.00;76910.81;5034593;28;20029;-83
2023/03/29 00:25:11;;;;;;;5.13;2.80;;;;;;;-148.88;100.00;76918.94;5033076;28;20365;-83
2023/03/29 00:27:37;;;;;;;4.72;2.42;;;;;;;-148.88;100.00;76910.81;5032696;28;20025;-83
2023/03/29 00:30:07;;;;;;;7.93;3.05;;;;;;;-148.88;100.00;76927.06;5034546;28;20047;-83
2023/03/29 00:32:33;;;;;;;7.28;2.70;;;;;;;-148.88;100.00;76929.09;5033720;28;20091;-83
2023/03/29 00:35:03;;;;;;;7.30;2.72;;;;;;;-148.88;100.00;76918.94;5034444;28;20025;-84
2023/03/29 00:37:29;;;;;;;5.22;2.92;;;;;;;-148.88;100.00;76918.94;5034791;28;20112;-83
2023/03/29 00:39:56;;;;;;;4.70;2.85;;;;;;;-148.88;100.00;76927.06;5035352;28;20049;-84
2023/03/29 00:42:22;;;;;;;5.55;3.00;;;;;;;-148.88;100.00;76925.03;5035458;28;20108;-84
2023/03/29 00:45:01;;;;;;;4.50;2.20;;;;;;;-148.88;100.00;76925.03;5036011;28;20120;-83
2023/03/29 00:47:49;;;;;;;6.18;2.72;;;;;;;-148.88;100.00;76920.97;5036786;28;20030;-83
2023/03/29 00:50:24;;;;;;;6.35;2.70;;;;;;;-148.88;100.00;76927.06;5034847;28;20365;-84
2023/03/29 00:53:02;;;;;;;6.30;2.78;;;;;;;-148.88;100.00;76933.16;5033093;28;20033;-83
2023/03/29 00:55:33;;;;;;;5.32;2.85;;;;;;;-148.88;100.00;76933.16;5031958;28;20373;-84
2023/03/29 00:58:00;;;;;;;10.30;3.22;;;;;;;-148.88;100.00;76927.06;5033355;28;20135;-83
2023/03/29 01:00:33;;;;;;;7.72;3.53;;;;;;;-148.88;100.00;76931.13;5033258;28;20057;-83
2023/03/29 01:03:03;;;;;;;9.80;3.50;;;;;;;-148.88;100.00;76931.13;5033483;28;20108;-84
2023/03/29 01:05:39;;;;;;;5.57;2.75;;;;;;;-148.88;100.00;76931.13;5033707;28;20036;-84
2023/03/29 01:08:16;;;;;;;5.93;2.53;;;;;;;-148.88;100.00;76927.06;5033805;28;20022;-84
2023/03/29 01:11:06;;;;;;;6.22;2.53;;;;;;;-148.88;100.00;76920.97;5036019;28;20557;-84
2023/03/29 01:13:40;;;;;;;6.38;2.60;;;;;;;-148.88;100.00;76918.94;5037801;28;20029;-83
2023/03/29 01:16:09;;;;;;;4.65;2.45;;;;;;;-148.88;100.00;76931.13;5038752;28;20025;-84
2023/03/29 01:18:35;;;;;;;6.00;2.72;;;;;;;-148.88;100.00;76931.13;5038999;28;20388;-83
2023/03/29 01:21:04;;;;;;;7.38;3.03;;;;;;;-148.88;100.00;76927.06;5039213;28;20162;-84
2023/03/29 01:23:57;;;;;;;5.00;2.45;;;;;;;-148.88;100.00;76931.13;5039930;28;20052;-84
2023/03/29 01:26:35;;;;;;;7.65;3.08;;;;;;;-148.88;100.00;76923.00;5037233;28;20028;-83
2023/03/29 01:29:08;;;;;;;5.47;2.25;;;;;;;-148.88;100.00;76927.06;5035253;28;20029;-84
2023/03/29 01:31:40;;;;;;;6.13;3.40;;;;;;;-148.88;100.00;76918.94;5036403;28;20029;-83
2023/03/29 01:34:16;;;;;;;5.15;2.83;;;;;;;-148.88;100.00;76918.94;5035777;28;20029;-84
2023/03/29 01:36:53;;;;;;;10.20;2.83;;;;;;;-148.88;100.00;76918.94;5035932;28;20021;-83
2023/03/29 01:39:20;;;;;;;5.90;2.72;;;;;;;-148.88;100.00;76910.81;5037366;28;20025;-84
2023/03/29 01:42:08;;;;;;;6.88;3.63;;;;;;;-148.88;100.00;76908.78;5035443;28;20047;-83
2023/03/29 01:44:50;;;;;;;5.97;2.80;;;;;;;-148.88;100.00;76914.88;5035621;28;20036;-83
2023/03/29 01:47:30;;;;;;;5.50;2.80;;;;;;;-148.88;100.00;76908.78;5037132;28;20574;-83
2023/03/29 01:50:15;;;;;;;6.25;3.00;;;;;;;-148.88;100.00;76910.81;5037123;28;20064;-83
2023/03/29 01:53:00;;;;;;;6.90;3.25;;;;;;;-148.88;100.00;76904.72;5036428;28;20511;-84
2023/03/29 01:55:31;;;;;;;7.45;2.92;;;;;;;-148.88;100.00;76904.72;5037820;28;20021;-84
2023/03/29 01:57:59;;;;;;;7.22;2.63;;;;;;;-148.88;100.00;76902.69;5038331;28;20391;-84
2023/03/29 02:00:28;;;;;;;5.85;2.90;;;;;;;-148.88;100.00;76904.72;5036642;28;20029;-83
2023/03/29 02:02:58;;;;;;;5.75;2.45;;;;;;;-148.88;100.00;76896.59;5034979;28;20033;-84
2023/03/29 02:05:27;;;;;;;4.88;2.63;;;;;;;-148.88;100.00;76896.59;5036573;28;20071;-84
2023/03/29 02:07:54;;;;;;;4.97;2.70;;;;;;;-148.88;100.00;76894.56;5036503;28;20033;-82
2023/03/29 02:10:21;;;;;;;8.07;2.70;;;;;;;-148.88;100.00;76890.50;5036581;28;20031;-84
2023/03/29 02:12:47;;;;;;;6.95;2.53;;;;;;;-148.88;100.00;76888.47;5036832;28;20029;-83
2023/03/29 02:15:17;;;;;;;7.07;3.35;;;;;;;-148.88;100.00;76884.38;5037717;28;20047;-84
2023/03/29 02:17:43;;;;;;;3.78;2.60;;;;;;;-148.88;100.00;76878.28;5036651;28;20029;-83
2023/03/29 02:20:16;;;;;;;7.20;3.40;;;;;;;-148.88;100.00;76878.28;5036551;28;20410;-84
2023/03/29 02:22:56;;;;;;;5.78;2.58;;;;;;;-148.88;100.00;76868.13;5037607;28;20025;-83
2023/03/29 02:25:23;;;;;;;4.53;2.53;;;;;;;-148.88;100.00;76864.06;5036560;28;20032;-84
2023/03/29 02:27:49;;;;;;;5.68;2.63;;;;;;;-148.88;100.00;76857.97;5038481;28;20476;-84
2023/03/29 02:30:17;;;;;;;8.65;2.80;;;;;;;-148.88;100.00;76853.91;5039015;28;20021;-84
2023/03/29 02:32:52;;;;;;;5.22;2.30;;;;;;;-148.88;100.00;76849.84;5037591;28;20037;-84
2023/03/29 02:35:33;;;;;;;5.78;2.72;;;;;;;-148.88;100.00;76853.91;5035074;28;20093;-83
2023/03/29 02:38:02;;;;;;;6.78;2.70;;;;;;;-148.88;100.00;76857.97;5034625;28;20057;-84
2023/03/29 02:40:28;;;;;;;4.53;2.30;;;;;;;-148.88;100.00;76847.81;5037544;28;20025;-84
2023/03/29 02:42:56;;;;;;;7.95;3.10;;;;;;;-148.88;100.00;76847.81;5037744;28;20040;-84
2023/03/29 02:45:24;;;;;;;5.47;2.80;;;;;;;-148.88;100.00;76841.72;5037980;28;20029;-84
2023/03/29 02:47:54;;;;;;;4.47;2.60;;;;;;;-148.88;100.00;76843.75;5036776;28;20460;-84
2023/03/29 02:50:22;;;;;;;5.13;2.83;;;;;;;-148.88;100.00;76837.66;5037986;28;20387;-84
2023/03/29 02:52:53;;;;;;;4.18;2.67;;;;;;;-148.88;100.00;76835.63;5036334;28;20440;-83
2023/03/29 02:55:23;;;;;;;6.25;2.95;;;;;;;-148.88;100.00;76829.53;5036655;28;20025;-84
2023/03/29 02:57:48;;;;;;;5.53;3.00;;;;;;;-148.88;100.00;76833.59;5036550;28;20094;-84
2023/03/29 03:00:18;;;;;;;6.75;2.85;;;;;;;-148.88;100.00;76815.31;5037078;28;20021;-84
2023/03/29 03:02:45;;;;;;;7.15;3.15;;;;;;;-148.88;100.00;76817.34;5037536;28;20025;-84
2023/03/29 03:05:11;;;;;;;7.32;3.05;;;;;;;-148.88;100.00;76813.28;5036731;28;20079;-84
2023/03/29 03:07:39;;;;;;;7.28;3.15;;;;;;;-148.88;100.00;76815.31;5037283;28;20025;-84
2023/03/29 03:10:06;;;;;;;5.55;3.22;;;;;;;-148.88;100.00;76807.19;5035914;28;20051;-84
2023/03/29 03:12:31;;;;;;;7.03;3.13;;;;;;;-148.88;100.00;76805.16;5034008;28;20112;-83
2023/03/29 03:14:57;;;;;;;7.57;3.35;;;;;;;-148.88;100.00;76803.13;5035559;28;20053;-83
2023/03/29 03:17:23;;;;;;;6.13;3.08;;;;;;;-148.88;100.00;76795.00;5034851;28;20028;-84
2023/03/29 03:19:49;;;;;;;6.15;3.05;;;;;;;-148.88;100.00;76801.09;5033964;28;20112;-84
2023/03/29 03:22:14;;;;;;;6.55;2.83;;;;;;;-148.88;100.00;76790.94;5035345;28;20336;-83
2023/03/29 03:24:40;;;;;;;7.63;3.00;;;;;;;-148.88;100.00;76782.81;5035105;28;20068;-84
2023/03/29 03:27:05;;;;;;;5.97;2.78;;;;;;;-148.88;100.00;76782.81;5035677;28;20055;-84
2023/03/29 03:29:30;;;;;;;5.97;3.00;;;;;;;-148.88;100.00;76778.75;5035322;28;20025;-83
2023/03/29 03:31:55;;;;;;;5.85;3.05;;;;;;;-148.88;100.00;76782.81;5035268;28;20032;-83
2023/03/29 03:34:21;;;;;;;6.80;2.78;;;;;;;-148.88;100.00;76778.75;5034710;28;20025;-85
2023/03/29 03:36:46;;;;;;;4.55;2.55;;;;;;;-148.88;100.00;76772.66;5035390;28;20036;-83
2023/03/29 03:39:18;;;;;;;7.32;3.28;;;;;;;-148.88;100.00;76762.50;5035615;28;20021;-85
2023/03/29 03:41:49;;;;;;;8.13;2.83;;;;;;;-148.88;100.00;76766.56;5034718;28;20044;-85
2023/03/29 03:44:15;;;;;;;4.47;2.40;;;;;;;-148.88;100.00;76760.44;5035815;28;20045;-85
2023/03/29 03:46:42;;;;;;;5.00;2.70;;;;;;;-148.88;100.00;76760.44;5017482;28;20060;-84
2023/03/29 03:49:18;;;;;;;5.10;2.78;;;;;;;-148.88;100.00;76756.41;5036629;28;20108;-84
2023/03/29 03:51:44;;;;;;;6.82;2.92;;;;;;;-148.88;100.00;76752.31;5034409;28;20411;-85
2023/03/29 03:54:10;;;;;;;5.80;2.30;;;;;;;-148.88;100.00;76756.41;5034977;28;20030;-84
2023/03/29 03:56:43;;;;;;;4.90;2.78;;;;;;;-148.88;100.00;76750.28;5034499;28;20095;-86
2023/03/29 03:59:09;;;;;;;5.55;2.78;;;;;;;-148.88;100.00;76744.19;5038275;28;20028;-86
2023/03/29 04:01:36;;;;;;;5.00;2.45;;;;;;;-148.88;100.00;76740.13;5018972;28;20033;-84
2023/03/29 04:04:03;;;;;;;6.85;3.00;;;;;;;-148.88;100.00;76740.13;5035083;28;20025;-84
2023/03/29 04:06:29;;;;;;;6.35;2.97;;;;;;;-148.88;100.00;76734.03;5033896;28;20028;-86
2023/03/29 04:09:02;;;;;;;5.45;2.70;;;;;;;-148.88;100.00;76738.09;5033417;28;20487;-86
2023/03/29 04:11:31;;;;;;;4.18;2.50;;;;;;;-148.88;100.00;76732.00;5017738;28;20132;-85
2023/03/29 04:14:01;;;;;;;5.68;2.50;;;;;;;-148.88;100.00;76729.97;5035831;28;20025;-87
2023/03/29 04:16:27;;;;;;;4.35;2.30;;;;;;;-148.88;100.00;76727.94;5033635;28;20029;-87
2023/03/29 04:18:57;;;;;;;7.72;2.67;;;;;;;-148.88;100.00;76719.81;5034247;28;20036;-86
2023/03/29 04:21:28;;;;;;;5.60;2.17;;;;;;;-148.88;100.00;76723.88;5032672;28;20514;-86
2023/03/29 04:24:04;;;;;;;6.68;2.70;;;;;;;-148.88;100.00;76723.88;5032624;28;20037;-86
2023/03/29 04:26:30;;;;;;;5.63;2.42;;;;;;;-148.88;99.77;76711.69;5032667;28;20037;-86
2023/03/29 04:28:55;;;;;;;5.50;2.70;;;;;;;-148.88;99.34;76701.53;5032419;28;20452;-86
2023/03/29 04:31:20;;;;;;;5.78;2.47;;;;;;;-148.88;98.93;76691.38;5033706;28;20055;-85
2023/03/29 04:34:01;;;;;;;4.93;2.40;;;;;;;-148.88;98.86;76699.50;5033778;28;20021;-85
2023/03/29 04:36:30;;;;;;;6.53;3.35;;;;;;;-148.88;97.37;76687.31;5032231;28;20021;-86
2023/03/29 04:38:55;;;;;;;5.15;2.33;;;;;;;-148.88;97.77;76679.19;5031740;28;20108;-85
2023/03/29 04:41:21;;;;;;;7.63;3.90;;;;;;;-148.88;97.94;76679.19;5031122;28;20041;-86
2023/03/29 04:43:58;;;;;;;9.45;5.00;;;;;;;-148.88;97.91;76679.19;5032955;28;20022;-85
2023/03/29 04:46:33;;;;;;;7.72;3.85;;;;;;;-148.88;97.27;76667.00;5034970;28;20025;-86
2023/03/29 04:48:58;;;;;;;6.70;2.95;;;;;;;-148.88;96.73;76658.88;5036826;28;20125;-86
2023/03/29 04:51:24;;;;;;;7.57;2.88;;;;;;;-148.88;96.50;76664.97;5037530;28;20049;-86
2023/03/29 04:53:49;;;;;;;5.85;2.40;;;;;;;-148.88;97.27;76658.88;5037102;28;20543;-85
2023/03/29 04:56:16;;;;;;;5.20;2.67;;;;;;;-148.88;96.94;76658.88;5036997;28;20029;-84
2023/03/29 04:58:49;;;;;;;6.30;3.25;;;;;;;-148.88;97.32;76669.03;5036674;28;20052;-85
2023/03/29 05:01:15;;;;;;;;;;;;;;;-148.88;97.68;76667.00;5035835;28;20410;-85
2023/03/29 05:03:40;;;;;;;4.50;2.30;;;;;;;-148.88;97.63;76662.94;5035789;28;20328;-85
2023/03/29 05:06:13;;;;;;;7.00;2.72;;;;;;;-148.88;97.80;76662.94;5036230;28;20033;-84
2023/03/29 05:11:07;;;;;;;6.72;2.45;;;;;;;-148.88;97.87;76658.88;5097865;28;20105;-80
2023/03/29 05:13:33;;;;;;;6.93;2.65;;;;;;;-148.88;98.00;76650.75;5101771;28;20020;-78
2023/03/29 05:15:59;;;;;;;4.65;2.40;;;;;;;-148.88;97.93;76650.75;5102152;28;20024;-78
2023/03/29 05:18:25;;;;;;;4.40;2.40;;;;;;;-148.88;97.54;76646.69;5084291;28;20028;-78
2023/03/29 05:20:52;;;;;;;8.20;2.80;;;;;;;-148.88;97.79;76646.69;5102074;28;20028;-79
2023/03/29 05:23:19;;;;;;;5.03;2.58;;;;;;;-148.88;97.89;76652.78;5103596;28;20024;-79
2023/03/29 05:25:46;;;;;;;5.60;3.20;;;;;;;-148.88;97.44;76650.75;5084078;28;20146;-78
2023/03/29 05:28:12;;;;;;;5.57;2.85;;;;;;;-148.88;97.46;76638.56;5083280;28;20024;-78
2023/03/29 05:30:37;;;;;;;5.00;2.65;;;;;;;-148.88;97.92;76638.56;5083102;28;20047;-79
2023/03/29 05:33:04;;;;;;;6.22;3.05;;;;;;;-148.88;97.37;76630.44;5101479;28;20019;-78
2023/03/29 05:35:29;;;;;;;4.97;2.72;;;;;;;-148.88;97.19;76632.47;5101262;28;20024;-78
2023/03/29 05:37:55;;;;;;;6.40;3.15;;;;;;;-148.88;97.60;76626.38;5082646;28;20072;-78
2023/03/29 05:40:20;;;;;;;4.68;2.58;;;;;;;-148.88;96.81;76624.34;5100254;28;20059;-77
2023/03/29 05:42:45;;;;;;;5.53;2.55;;;;;;;-148.88;96.71;76610.13;5101401;28;20133;-78
2023/03/29 05:45:11;;;;;;;4.95;2.63;;;;;;;-148.88;96.47;76597.91;5083599;28;20028;-79
2023/03/29 05:47:36;;;;;;;5.40;2.50;;;;;;;-148.88;96.52;76591.81;5102265;28;20024;-78
2023/03/29 05:50:02;;;;;;;4.88;2.70;;;;;;;-148.88;96.51;76597.91;5102169;28;20024;-78
2023/03/29 05:52:27;;;;;;;7.15;2.70;;;;;;;-148.88;96.83;76597.91;5101767;28;20028;-78
2023/03/29 05:54:52;;;;;;;6.53;2.83;;;;;;;-148.88;96.89;76589.78;5101681;28;20042;-78
2023/03/29 05:57:17;;;;;;;4.70;2.53;;;;;;;-148.88;97.25;76581.66;5101128;28;20517;-77
2023/03/29 05:59:43;;;;;;;7.03;3.30;;;;;;;-148.88;97.13;76577.59;5097922;28;20020;-77
2023/03/29 06:02:10;;;;;;;6.50;2.70;;;;;;;-148.88;96.80;76577.59;5098259;28;20107;-78
2023/03/29 06:04:36;;;;;;;5.18;2.90;;;;;;;-148.88;96.71;76577.59;5081572;28;20027;-79
2023/03/29 06:07:04;;;;;;;6.22;3.13;;;;;;;-148.88;96.14;76577.59;5098777;28;20032;-80
2023/03/29 06:09:29;;;;;;;7.78;3.70;;;;;;;-148.88;96.04;76573.53;5098635;28;20101;-77
2023/03/29 06:11:55;;;;;;;6.72;2.85;;;;;;;-148.88;96.17;76579.63;5096249;28;20489;-78
2023/03/29 06:14:22;;;;;;;5.38;3.10;;;;;;;-148.88;96.52;76575.56;5096440;28;20020;-78
2023/03/29 06:16:47;;;;;;;8.65;3.75;;;;;;;-148.88;96.56;76575.56;5078886;28;20395;-77
2023/03/29 06:19:13;;;;;;;7.40;3.88;;;;;;;-148.88;96.30;76571.50;5097035;28;20031;-77
2023/03/29 06:21:38;;;;;;;13.60;5.00;;;;;;;-148.88;96.16;76577.59;5096557;28;20099;-76
2023/03/29 06:24:04;;;;;;;12.32;5.13;;;;;;;-148.88;96.32;76575.56;5096425;28;20031;-77
2023/03/29 06:26:29;;;;;;;13.23;4.53;;;;;;;-148.88;96.47;76565.41;5096805;28;20020;-78
2023/03/29 06:28:55;;;;;;;8.13;3.22;;;;;;;-148.88;96.96;76561.34;5077816;28;20024;-78
2023/03/29 06:31:20;;;;;;;7.95;3.05;;;;;;;-148.88;96.02;76567.44;5078239;28;20115;-77
2023/03/29 06:33:46;;;;;;;11.00;3.50;;;;;;;-148.88;96.27;76561.34;5095711;28;20069;-78
2023/03/29 06:36:14;;;;;;;9.07;3.05;;;;;;;-148.88;96.13;76561.34;5095499;28;20020;-77
2023/03/29 06:38:40;;;;;;;7.40;3.05;;;;;;;-148.88;96.18;76567.44;5076910;28;20079;-77
2023/03/29 06:41:06;;;;;;;9.73;3.85;;;;;;;-148.88;95.67;76561.34;5095272;28;20020;-77
2023/03/29 06:43:33;;;;;;;8.75;4.90;;;;;;;-148.88;96.23;76559.31;5095097;28;20020;-78
2023/03/29 06:45:59;;;;;;;6.78;2.90;;;;;;;-148.88;95.91;76545.09;5095415;28;20043;-78
2023/03/29 06:48:25;;;;;;;9.52;2.70;;;;;;;-148.88;96.39;76541.03;5095377;28;20016;-77
2023/03/29 06:50:51;;;;;;;4.32;2.67;;;;;;;-148.88;96.40;76549.16;5095485;28;20024;-78
2023/03/29 06:53:16;;;;;;;8.27;3.72;;;;;;;-148.88;96.36;76547.13;5096491;28;20437;-77
2023/03/29 06:55:41;;;;;;;7.65;3.30;;;;;;;-148.88;96.18;76541.03;5095994;28;20028;-77
2023/03/29 06:58:08;;;;;;;4.97;2.83;;;;;;;-148.88;96.01;76543.06;5077675;28;20024;-77
2023/03/29 07:00:36;;;;;;;5.82;2.75;;;;;;;-148.88;96.30;76530.88;5095344;28;20034;-77
2023/03/29 07:03:08;;;;;;;9.13;3.70;;;;;;;-148.88;96.64;76549.16;5095726;28;20031;-77
2023/03/29 07:05:40;;;;;;;8.27;3.40;;;;;;;-148.88;96.75;76534.94;5076806;28;20046;-77
2023/03/29 07:10:37;;;;;;;7.38;3.10;;;;;;;-148.88;98.04;76536.97;5095164;28;20474;-77
2023/03/29 07:13:04;;;;;;;5.70;3.45;;;;;;;-148.88;98.07;76543.06;5094951;28;20543;-78
2023/03/29 07:15:30;;;;;;;8.95;3.70;;;;;;;-148.88;99.06;76528.84;5094783;28;20016;-77
2023/03/29 07:17:56;;;;;;;5.88;3.35;;;;;;;-148.88;99.42;76534.94;5094875;28;20020;-78
2023/03/29 07:20:22;;;;;;;10.48;4.25;;;;;;;-148.88;100.00;76543.06;5076471;28;20031;-78
2023/03/29 07:22:49;;;;;;;8.48;3.45;;;;;;;-148.88;100.00;76536.97;5076390;28;20032;-77
2023/03/29 07:25:17;;;;;;;10.38;4.00;;;;;;;-148.88;100.00;76534.94;5094623;28;20048;-78
2023/03/29 07:27:43;;;;;;;10.57;3.92;;;;;;;-148.88;100.00;76530.88;5094625;28;20020;-76
2023/03/29 07:30:12;;;;;;;7.05;3.65;;;;;;;-148.88;100.00;76520.72;5095665;28;20172;-77
2023/03/29 07:32:39;;;;;;;7.60;3.60;;;;;;;-148.88;100.00;76518.69;5095266;28;20479;-77
2023/03/29 07:35:06;;;;;;;8.13;4.00;;;;;;;-148.88;100.00;76520.72;5077167;28;20073;-78
2023/03/29 07:37:34;;;;;;;11.80;4.28;;;;;;;-148.88;100.00;76524.78;5094729;28;20027;-77
2023/03/29 07:40:00;;;;;;;8.20;3.67;;;;;;;-148.88;100.00;76524.78;5076292;28;20573;-78
2023/03/29 07:42:26;;;;;;;6.95;3.55;;;;;;;-148.88;100.00;76524.78;5094541;28;20509;-77
2023/03/29 07:44:53;;;;;;;6.63;3.20;;;;;;;-148.88;100.00;76520.72;5076293;28;20024;-78
2023/03/29 07:47:18;;;;;;;6.95;4.00;;;;;;;-148.88;100.00;76504.47;5094461;28;20061;-77
2023/03/29 07:49:43;;;;;;;8.77;3.60;;;;;;;-148.88;100.00;76510.56;5094401;28;20027;-77
2023/03/29 07:52:11;;;;;;;7.53;3.72;;;;;;;-148.88;100.00;76508.53;5095872;28;20019;-78
2023/03/29 07:54:37;;;;;;;11.02;3.83;;;;;;;-148.88;100.00;76508.53;5077157;28;20486;-78
2023/03/29 07:57:03;;;;;;;9.27;3.75;;;;;;;-148.88;100.00;76516.66;5094758;28;20048;-78
2023/03/29 07:59:28;;;;;;;10.93;4.15;;;;;;;-148.88;100.00;76524.78;5093884;28;20019;-78
2023/03/29 08:01:54;;;;;;;10.65;3.83;;;;;;;-148.88;100.00;76506.50;5093814;28;20535;-77
2023/03/29 08:04:20;;;;;;;9.15;3.72;;;;;;;-148.88;100.00;76514.63;5075859;28;20024;-78
2023/03/29 08:06:45;;;;;;;11.60;3.58;;;;;;;-148.88;100.00;76504.47;5077057;28;20039;-77
2023/03/29 08:09:11;;;;;;;5.70;3.58;;;;;;;-148.88;100.00;76500.41;5094505;28;20080;-76
2023/03/29 08:11:38;;;;;;;8.70;4.03;;;;;;;-148.88;100.00;76506.50;5094503;28;20032;-77
2023/03/29 08:14:04;;;;;;;6.75;3.78;;;;;;;-148.88;100.00;76508.53;5076442;28;20140;-77
2023/03/29 08:16:30;;;;;;;6.75;3.45;;;;;;;-148.88;100.00;76500.41;5094384;28;20027;-77
2023/03/29 08:18:55;;;;;;;8.10;4.00;;;;;;;-148.88;100.00;76504.47;5075409;28;20016;-77
2023/03/29 08:21:20;;;;;;;8.15;4.47;;;;;;;-148.88;100.00;76500.41;5094294;28;20522;-77
2023/03/29 08:23:46;;;;;;;8.93;4.22;;;;;;;-148.88;100.00;76506.50;5093719;28;20020;-77
2023/03/29 08:26:11;;;;;;;7.07;3.55;;;;;;;-148.88;100.00;76500.41;5094236;28;20081;-77
2023/03/29 08:28:37;;;;;;;11.18;3.97;;;;;;;-148.88;100.00;76496.34;5075632;28;20023;-77
2023/03/29 08:31:02;;;;;;;9.25;4.28;;;;;;;-148.88;100.00;76486.19;5075508;28;20089;-77
2023/03/29 08:33:28;;;;;;;10.93;3.80;;;;;;;-148.88;100.00;76490.25;5094138;28;20024;-77
2023/03/29 08:35:53;;;;;;;7.82;3.63;;;;;;;-148.88;100.00;76484.16;5075067;28;20475;-77
2023/03/29 08:38:18;;;;;;;7.72;3.72;;;;;;;-148.88;100.00;76480.09;5093159;28;20020;-77
2023/03/29 08:40:47;;;;;;;8.57;3.70;;;;;;;-148.88;100.00;76476.03;5093603;28;20035;-77
2023/03/29 08:43:17;;;;;;;9.13;3.63;;;;;;;-148.88;100.00;76471.97;5074830;28;20046;-77
2023/03/29 08:46:19;;;;;;;6.93;3.55;;;;;;;-148.88;100.00;76451.66;5074763;28;20055;-77
2023/03/29 08:48:52;;;;;;;7.43;3.80;;;;;;;-148.88;100.00;76455.72;5093183;28;20024;-77
2023/03/29 08:51:30;;;;;;;7.72;3.60;;;;;;;-148.88;100.00;76453.69;5093057;28;20019;-77
2023/03/29 08:54:03;;;;;;;8.50;3.97;;;;;;;-148.88;100.00;76455.72;5092821;28;20028;-77
2023/03/29 08:56:31;;;;;;;9.43;3.93;;;;;;;-148.88;100.00;76451.66;5093372;28;20017;-77
2023/03/29 08:58:57;;;;;;;7.95;4.45;;;;;;;-148.88;100.00;76447.59;5074512;28;20775;-77
2023/03/29 09:01:26;;;;;;;9.70;4.40;;;;;;;-148.88;100.00;76431.34;5092710;28;20108;-77
2023/03/29 09:04:16;;;;;;;7.63;4.30;;;;;;;-148.88;100.00;76427.28;5092939;28;20051;-77
2023/03/29 09:06:41;;;;;;;10.90;4.93;;;;;;;-148.88;100.00;76411.00;5084850;28;20079;-77
2023/03/29 09:09:19;;;;;;;9.32;4.53;;;;;;;-148.88;100.00;76404.91;5074412;28;20062;-77
2023/03/29 09:12:11;;;;;;;8.90;4.28;;;;;;;-148.88;100.00;76396.78;5092844;28;20494;-77
2023/03/29 09:14:51;;;;;;;10.25;4.35;;;;;;;-148.88;100.00;76390.69;5084415;28;20032;-77
2023/03/29 09:17:35;;;;;;;14.20;5.22;;;;;;;-148.88;100.00;76386.63;5093436;28;20107;-77
2023/03/29 09:20:06;;;;;;;;;;;;;;;-148.88;100.00;76370.38;5076030;28;20443;-76
2023/03/29 09:22:47;;;;;;;6.32;3.63;;;;;;;-148.88;100.00;76370.38;5092742;28;19907;-77
2023/03/29 09:25:40;;;;;;;8.32;3.75;;;;;;;-148.88;100.00;76354.13;5092474;28;20035;-77
2023/03/29 09:28:49;;;;;;;8.23;4.25;;;;;;;-148.88;100.00;76350.06;5092466;28;20020;-77
2023/03/29 09:31:20;;;;;;;9.20;3.75;;;;;;;-148.88;100.00;76329.75;5074467;28;20031;-77
2023/03/29 09:33:52;;;;;;;9.85;4.00;;;;;;;-148.88;100.00;76323.66;5096631;28;20031;-77
2023/03/29 09:36:35;;;;;;;9.30;3.72;;;;;;;-148.88;100.00;76309.44;5096394;28;20030;-77
2023/03/29 09:39:02;;;;;;;8.60;3.83;;;;;;;-148.88;100.00;76321.63;5078951;28;20021;-77
2023/03/29 09:41:52;;;;;;;8.30;3.65;;;;;;;-148.88;100.00;76321.63;5096148;28;20028;-77
2023/03/29 09:44:22;;;;;;;7.78;3.60;;;;;;;-148.88;100.00;76311.47;5086934;28;20072;-77
2023/03/29 09:46:53;;;;;;;7.85;3.60;;;;;;;-148.88;100.00;76285.06;5096396;28;20020;-77
2023/03/29 09:49:25;;;;;;;8.30;3.85;;;;;;;-148.88;100.00;76276.94;5096228;28;20099;-77
2023/03/29 09:51:56;;;;;;;8.60;3.70;;;;;;;-148.88;100.00;76264.75;5078005;28;20107;-77
2023/03/29 09:54:22;;;;;;;7.85;3.50;;;;;;;-148.88;100.00;76240.38;5096509;28;20119;-76
2023/03/29 09:56:47;;;;;;;8.00;4.30;;;;;;;-148.88;100.00;76238.34;5096125;28;20060;-77
2023/03/29 09:59:12;;;;;;;11.35;4.78;;;;;;;-148.88;99.63;76246.47;5077724;28;20028;-76
2023/03/29 10:01:41;;;;;;;8.88;4.20;;;;;;;-148.88;99.19;76238.34;5096064;28;20390;-76
2023/03/29 10:04:08;;;;;;;12.45;4.03;;;;;;;-148.88;99.21;76228.19;5095826;28;20016;-77
2023/03/29 10:06:34;;;;;;;8.20;3.90;;;;;;;-148.88;98.50;76232.25;5095650;28;20032;-76
2023/03/29 10:09:00;;;;;;;9.98;4.25;;;;;;;-148.88;98.71;76232.25;5096179;28;20020;-79
2023/03/29 10:11:31;;;;;;;5.82;3.55;;;;;;;-148.88;98.98;76240.38;5098573;28;20031;-77
2023/03/29 10:14:02;;;;;;;9.75;3.90;;;;;;;-148.88;99.81;76224.13;5081320;28;20020;-79
2023/03/29 10:16:32;;;;;;;6.82;3.42;;;;;;;-148.88;99.25;76199.75;5099345;28;20089;-79
2023/03/29 10:18:57;;;;;;;8.25;3.92;;;;;;;-148.88;99.02;76181.47;5098970;28;20020;-79
2023/03/29 10:21:23;;;;;;;7.75;4.13;;;;;;;-148.88;100.00;76171.31;5083588;28;20107;-78
2023/03/29 10:23:55;;;;;;;15.63;8.20;;;;;;;-148.88;99.56;76171.31;5102806;28;20475;-78
2023/03/29 10:26:28;;;;;;;10.50;4.63;;;;;;;-148.88;99.55;76146.94;5102587;28;20447;-78
2023/03/29 10:28:56;;;;;;;12.88;5.20;;;;;;;-148.88;98.82;76136.78;5101498;28;20110;-77
2023/03/29 10:31:22;;;;;;;10.32;5.20;;;;;;;-148.88;99.14;76159.13;5104375;28;20031;-78
2023/03/29 10:33:54;;;;;;;9.30;6.82;;;;;;;-148.88;100.00;76130.69;5103793;28;20023;-78
2023/03/29 10:36:21;;;;;;;11.40;4.75;;;;;;;-148.88;100.00;76128.66;5103864;28;20028;-78
2023/03/29 10:38:46;;;;;;;11.90;5.50;;;;;;;-148.88;99.40;76130.69;5103989;28;20342;-78
2023/03/29 10:41:16;;;;;;;10.07;7.53;;;;;;;-148.88;100.00;76110.34;5102842;28;20126;-78
2023/03/29 10:43:48;;;;;;;11.07;5.45;;;;;;;-148.88;100.00;76102.22;5101726;28;20032;-78
2023/03/29 10:46:29;;;;;;;10.45;7.38;;;;;;;-148.88;100.00;76085.97;5084604;28;20505;-78
2023/03/29 10:48:56;;;;;;;10.52;5.20;;;;;;;-148.88;100.00;76100.19;5102741;28;20027;-78
2023/03/29 10:51:23;;;;;;;10.82;7.60;;;;;;;-148.88;100.00;76112.41;5102522;28;20039;-78
2023/03/29 10:53:49;;;;;;;8.93;5.15;;;;;;;-148.88;100.00;76116.44;5085544;28;20493;-79
2023/03/29 10:56:21;;;;;;;8.18;5.15;;;;;;;-148.88;100.00;76132.72;5082791;28;20023;-79
2023/03/29 10:59:08;;;;;;;11.57;5.10;;;;;;;-148.88;100.00;76130.69;5100810;28;20558;-79
2023/03/29 11:01:55;;;;;;;7.43;4.80;;;;;;;-148.88;100.00;76130.69;5100776;28;20027;-79
2023/03/29 11:04:36;;;;;;;10.98;4.88;;;;;;;-148.88;100.00;76114.41;5102010;28;20024;-78
2023/03/29 11:10:05;;;;;;;9.45;5.43;;;;;;;-148.88;100.00;76102.22;5159627;22;20130;-79
2023/03/29 11:12:52;;;;;;;7.68;4.82;;;;;;;-148.88;100.00;76098.16;5077946;28;20035;-80
2023/03/29 11:16:15;;;;;;;9.85;5.78;;;;;;;-148.88;100.00;76092.06;5060492;28;20024;-79
2023/03/29 11:18:59;;;;;;;10.55;5.57;;;;;;;-148.88;100.00;76090.03;4996632;28;20034;-78
2023/03/29 11:21:38;;;;;;;10.43;6.07;;;;;;;-148.88;100.00;76067.69;5059402;28;20432;-77
2023/03/29 11:24:10;;;;;;;12.57;8.20;;;;;;;-148.88;100.00;76053.47;5077046;28;20105;-79
2023/03/29 11:26:38;;;;;;;12.30;6.18;;;;;;;-148.88;100.00;76051.44;5076769;28;20500;-79
2023/03/29 11:29:29;;;;;;;12.95;9.20;;;;;;;-148.88;100.00;76047.38;5059126;28;20120;-79
2023/03/29 11:32:13;;;;;;;13.52;9.90;;;;;;;-148.88;100.00;76067.69;5059266;28;20029;-79